Líbí se Vám tento web? Budeme velmi rádi, pokud přidáte hodnocení +1

Seznam meteostanic a jejich METAR

Vyhledat místa podle abecedy:
A B C D E F G H I J K L M N O P Q R S T U V W X Y Z

Filtrovat:

ID stanice:
a/nebo
Název místa (fulltext):
 
Místo (ID)Naposledy načteno 
Yamoussoukro (DIYO) 20.01.2018 00:00 UTC Zobrazit METAR
DIYO 200000Z 22004KT 6000 NSC 26/23 Q1012 NOSIG
Yangon (VYYY) 20.01.2018 03:00 UTC Zobrazit METAR
VYYY 200300Z 01006KT 8000 NSC 25/21 Q1013
Yaounde (FKYS) 20.01.2018 02:00 UTC Zobrazit METAR
FKYS 200200Z 27002KT 6000 BKN006 22/21 Q1015 BECMG 4000 BR
Yerevan (UGEE) Zatím nenačteno  
Reklama

Počasí na Váš email

Emaily jsou bez reklamy a bez spamu



Odhlásit newsletter

Reklama


Lunární kalendář

  • 24.01.
  • 31.01.
  • 07.02.
  • 15.02.



Jsme na Google Plus

Reklama
Povinné ručení



Může Vás také zajímat:


Reklama